sensor_id;sensor_type;location;lat;lon;timestamp;pressure;altitude;pressure_sealevel;temperature;humidity
69153;BME280;56261;51.580;4.578;2023-03-13T00:01:26;100322.63;;;9.79;100.00
69153;BME280;56261;51.580;4.578;2023-03-13T00:03:52;100289.19;;;9.76;100.00
69153;BME280;56261;51.580;4.578;2023-03-13T00:06:20;100293.59;;;9.84;100.00
69153;BME280;56261;51.580;4.578;2023-03-13T00:08:46;100290.78;;;9.85;100.00
69153;BME280;56261;51.580;4.578;2023-03-13T00:11:13;100275.50;;;9.79;100.00
69153;BME280;56261;51.580;4.578;2023-03-13T00:13:43;100264.31;;;9.84;100.00
69153;BME280;56261;51.580;4.578;2023-03-13T00:16:11;100263.66;;;9.82;100.00
69153;BME280;56261;51.580;4.578;2023-03-13T00:18:37;100261.63;;;9.84;100.00
69153;BME280;56261;51.580;4.578;2023-03-13T00:21:05;100248.59;;;9.89;100.00
69153;BME280;56261;51.580;4.578;2023-03-13T00:23:31;100239.63;;;9.90;100.00
69153;BME280;56261;51.580;4.578;2023-03-13T00:26:05;100241.25;;;9.91;100.00
69153;BME280;56261;51.580;4.578;2023-03-13T00:28:32;100229.78;;;9.90;100.00
69153;BME280;56261;51.580;4.578;2023-03-13T00:33:27;100219.50;;;9.87;100.00
69153;BME280;56261;51.580;4.578;2023-03-13T00:36:00;100214.72;;;9.97;100.00
69153;BME280;56261;51.580;4.578;2023-03-13T00:38:28;100206.28;;;9.94;100.00
69153;BME280;56261;51.580;4.578;2023-03-13T00:41:11;100191.50;;;10.06;100.00
69153;BME280;56261;51.580;4.578;2023-03-13T00:43:37;100183.16;;;10.09;100.00
69153;BME280;56261;51.580;4.578;2023-03-13T00:46:03;100185.19;;;10.07;100.00
69153;BME280;56261;51.580;4.578;2023-03-13T00:48:29;100171.66;;;10.09;100.00
69153;BME280;56261;51.580;4.578;2023-03-13T00:50:55;100179.47;;;10.10;100.00
69153;BME280;56261;51.580;4.578;2023-03-13T00:53:21;100171.41;;;10.18;100.00
69153;BME280;56261;51.580;4.578;2023-03-13T00:56:13;100162.38;;;10.19;100.00
69153;BME280;56261;51.580;4.578;2023-03-13T00:58:40;100161.19;;;10.22;100.00
69153;BME280;56261;51.580;4.578;2023-03-13T01:01:12;100163.13;;;10.28;100.00
69153;BME280;56261;51.580;4.578;2023-03-13T01:03:39;100156.63;;;10.31;100.00
69153;BME280;56261;51.580;4.578;2023-03-13T01:06:07;100149.53;;;10.38;100.00
69153;BME280;56261;51.580;4.578;2023-03-13T01:08:34;100145.13;;;10.30;100.00
69153;BME280;56261;51.580;4.578;2023-03-13T01:11:05;100146.03;;;10.37;100.00
69153;BME280;56261;51.580;4.578;2023-03-13T01:13:31;100135.22;;;10.39;100.00
69153;BME280;56261;51.580;4.578;2023-03-13T01:16:01;100137.06;;;10.38;100.00
69153;BME280;56261;51.580;4.578;2023-03-13T01:18:27;100135.94;;;10.48;100.00
69153;BME280;56261;51.580;4.578;2023-03-13T01:20:52;100131.81;;;10.45;100.00
69153;BME280;56261;51.580;4.578;2023-03-13T01:23:17;100125.53;;;10.53;100.00
69153;BME280;56261;51.580;4.578;2023-03-13T01:25:43;100125.78;;;10.58;100.00
69153;BME280;56261;51.580;4.578;2023-03-13T01:28:09;100115.13;;;10.58;100.00
69153;BME280;56261;51.580;4.578;2023-03-13T01:30:34;100099.81;;;10.67;100.00
69153;BME280;56261;51.580;4.578;2023-03-13T01:32:59;100099.06;;;10.73;100.00
69153;BME280;56261;51.580;4.578;2023-03-13T01:35:26;100098.91;;;10.74;100.00
69153;BME280;56261;51.580;4.578;2023-03-13T01:37:51;100072.03;;;10.76;100.00
69153;BME280;56261;51.580;4.578;2023-03-13T01:40:17;100077.41;;;10.83;100.00
69153;BME280;56261;51.580;4.578;2023-03-13T01:42:56;100060.22;;;10.85;100.00
69153;BME280;56261;51.580;4.578;2023-03-13T01:50:55;100037.91;;;10.93;100.00
69153;BME280;56261;51.580;4.578;2023-03-13T01:53:21;100035.38;;;10.85;100.00
69153;BME280;56261;51.580;4.578;2023-03-13T01:55:47;100036.28;;;10.92;100.00
69153;BME280;56261;51.580;4.578;2023-03-13T01:58:13;100031.31;;;10.89;100.00
69153;BME280;56261;51.580;4.578;2023-03-13T02:00:39;100029.91;;;10.93;100.00
69153;BME280;56261;51.580;4.578;2023-03-13T02:03:11;100016.19;;;10.96;100.00
69153;BME280;56261;51.580;4.578;2023-03-13T02:05:40;100013.56;;;11.02;100.00
69153;BME280;56261;51.580;4.578;2023-03-13T02:08:39;99990.41;;;11.03;100.00
69153;BME280;56261;51.580;4.578;2023-03-13T02:11:18;100006.06;;;11.13;100.00
69153;BME280;56261;51.580;4.578;2023-03-13T02:13:47;100003.16;;;11.08;100.00
69153;BME280;56261;51.580;4.578;2023-03-13T02:16:15;99995.56;;;11.11;100.00
69153;BME280;56261;51.580;4.578;2023-03-13T02:18:41;99995.00;;;11.16;100.00
69153;BME280;56261;51.580;4.578;2023-03-13T02:21:22;100003.63;;;11.18;100.00
69153;BME280;56261;51.580;4.578;2023-03-13T02:26:22;99992.41;;;11.29;100.00
69153;BME280;56261;51.580;4.578;2023-03-13T02:28:47;99987.34;;;11.34;100.00
69153;BME280;56261;51.580;4.578;2023-03-13T02:31:14;99977.44;;;11.28;100.00
69153;BME280;56261;51.580;4.578;2023-03-13T02:33:41;99983.66;;;11.42;100.00
69153;BME280;56261;51.580;4.578;2023-03-13T02:36:08;99972.44;;;11.53;100.00
69153;BME280;56261;51.580;4.578;2023-03-13T02:38:46;99982.50;;;11.51;100.00
69153;BME280;56261;51.580;4.578;2023-03-13T02:41:14;99976.19;;;11.59;100.00
69153;BME280;56261;51.580;4.578;2023-03-13T02:43:40;99978.00;;;11.58;100.00
69153;BME280;56261;51.580;4.578;2023-03-13T02:46:14;99965.72;;;11.64;100.00
69153;BME280;56261;51.580;4.578;2023-03-13T02:48:45;99986.25;;;11.63;100.00
69153;BME280;56261;51.580;4.578;2023-03-13T02:51:19;99973.94;;;11.69;100.00
69153;BME280;56261;51.580;4.578;2023-03-13T02:53:48;99974.16;;;11.68;100.00
69153;BME280;56261;51.580;4.578;2023-03-13T02:56:16;99971.88;;;11.64;100.00
69153;BME280;56261;51.580;4.578;2023-03-13T02:58:43;99967.97;;;11.67;100.00
69153;BME280;56261;51.580;4.578;2023-03-13T03:01:09;99971.09;;;11.71;100.00
69153;BME280;56261;51.580;4.578;2023-03-13T03:03:34;99950.97;;;11.75;100.00
69153;BME280;56261;51.580;4.578;2023-03-13T03:06:02;99953.00;;;11.73;100.00
69153;BME280;56261;51.580;4.578;2023-03-13T03:08:27;99952.78;;;11.74;100.00
69153;BME280;56261;51.580;4.578;2023-03-13T03:10:56;99951.34;;;11.72;100.00
69153;BME280;56261;51.580;4.578;2023-03-13T03:13:22;99949.88;;;11.62;100.00
69153;BME280;56261;51.580;4.578;2023-03-13T03:15:47;99957.56;;;11.79;100.00
69153;BME280;56261;51.580;4.578;2023-03-13T03:18:12;99957.16;;;11.82;100.00
69153;BME280;56261;51.580;4.578;2023-03-13T03:20:38;99952.44;;;11.84;100.00
69153;BME280;56261;51.580;4.578;2023-03-13T03:23:03;99954.94;;;11.86;100.00
69153;BME280;56261;51.580;4.578;2023-03-13T03:25:28;99956.41;;;11.88;100.00
69153;BME280;56261;51.580;4.578;2023-03-13T03:27:54;99957.25;;;12.02;100.00
69153;BME280;56261;51.580;4.578;2023-03-13T03:30:20;99949.41;;;11.94;100.00
69153;BME280;56261;51.580;4.578;2023-03-13T03:32:46;99957.66;;;12.05;100.00
69153;BME280;56261;51.580;4.578;2023-03-13T03:35:11;99952.34;;;11.99;100.00
69153;BME280;56261;51.580;4.578;2023-03-13T03:37:36;99940.81;;;12.05;100.00
69153;BME280;56261;51.580;4.578;2023-03-13T03:40:02;99945.56;;;12.10;100.00
69153;BME280;56261;51.580;4.578;2023-03-13T03:42:30;99933.88;;;12.17;100.00
69153;BME280;56261;51.580;4.578;2023-03-13T03:44:56;99924.41;;;12.15;100.00
69153;BME280;56261;51.580;4.578;2023-03-13T03:47:21;99904.03;;;12.20;100.00
69153;BME280;56261;51.580;4.578;2023-03-13T03:49:46;99912.06;;;12.27;100.00
69153;BME280;56261;51.580;4.578;2023-03-13T03:52:12;99908.59;;;12.27;100.00
69153;BME280;56261;51.580;4.578;2023-03-13T03:54:37;99905.09;;;12.33;100.00
69153;BME280;56261;51.580;4.578;2023-03-13T03:57:03;99916.00;;;12.44;100.00
69153;BME280;56261;51.580;4.578;2023-03-13T03:59:28;99897.72;;;12.41;100.00
69153;BME280;56261;51.580;4.578;2023-03-13T04:01:54;99908.59;;;12.40;100.00
69153;BME280;56261;51.580;4.578;2023-03-13T04:04:19;99903.88;;;12.42;100.00
69153;BME280;56261;51.580;4.578;2023-03-13T04:06:45;99903.06;;;12.41;100.00
69153;BME280;56261;51.580;4.578;2023-03-13T04:09:10;99894.81;;;12.50;100.00
69153;BME280;56261;51.580;4.578;2023-03-13T04:11:35;99888.22;;;12.45;100.00
69153;BME280;56261;51.580;4.578;2023-03-13T04:14:01;99907.56;;;12.48;100.00
69153;BME280;56261;51.580;4.578;2023-03-13T04:16:26;99876.50;;;12.46;100.00
69153;BME280;56261;51.580;4.578;2023-03-13T04:18:52;99893.56;;;12.52;100.00
69153;BME280;56261;51.580;4.578;2023-03-13T04:21:17;99882.88;;;12.59;100.00
69153;BME280;56261;51.580;4.578;2023-03-13T04:23:42;99884.09;;;12.63;100.00
69153;BME280;56261;51.580;4.578;2023-03-13T04:26:08;99891.94;;;12.64;100.00
69153;BME280;56261;51.580;4.578;2023-03-13T04:28:33;99889.06;;;12.66;100.00
69153;BME280;56261;51.580;4.578;2023-03-13T04:30:59;99889.25;;;12.78;100.00
69153;BME280;56261;51.580;4.578;2023-03-13T04:33:25;99884.72;;;12.78;100.00
69153;BME280;56261;51.580;4.578;2023-03-13T04:35:50;99886.75;;;12.83;100.00
69153;BME280;56261;51.580;4.578;2023-03-13T04:38:16;99875.22;;;12.89;100.00
69153;BME280;56261;51.580;4.578;2023-03-13T04:40:41;99859.38;;;12.87;100.00
69153;BME280;56261;51.580;4.578;2023-03-13T04:43:07;99864.34;;;12.84;100.00
69153;BME280;56261;51.580;4.578;2023-03-13T04:45:33;99874.44;;;12.82;100.00
69153;BME280;56261;51.580;4.578;2023-03-13T04:47:58;99857.94;;;12.85;100.00
69153;BME280;56261;51.580;4.578;2023-03-13T04:50:24;99870.09;;;12.81;100.00
69153;BME280;56261;51.580;4.578;2023-03-13T04:52:49;99878.34;;;12.79;100.00
69153;BME280;56261;51.580;4.578;2023-03-13T04:55:15;99847.06;;;12.80;100.00
69153;BME280;56261;51.580;4.578;2023-03-13T04:57:43;99861.44;;;12.85;100.00
69153;BME280;56261;51.580;4.578;2023-03-13T05:00:10;99848.28;;;12.91;100.00
69153;BME280;56261;51.580;4.578;2023-03-13T05:02:35;99859.19;;;12.89;100.00
69153;BME280;56261;51.580;4.578;2023-03-13T05:05:01;99860.19;;;12.88;100.00
69153;BME280;56261;51.580;4.578;2023-03-13T05:07:26;99864.72;;;12.87;100.00
69153;BME280;56261;51.580;4.578;2023-03-13T05:09:52;99865.38;;;12.76;100.00
69153;BME280;56261;51.580;4.578;2023-03-13T05:12:17;99862.88;;;12.81;100.00
69153;BME280;56261;51.580;4.578;2023-03-13T05:14:45;99860.63;;;12.85;100.00
69153;BME280;56261;51.580;4.578;2023-03-13T05:17:11;99853.19;;;12.94;100.00
69153;BME280;56261;51.580;4.578;2023-03-13T05:19:37;99830.75;;;12.88;100.00
69153;BME280;56261;51.580;4.578;2023-03-13T05:22:02;99845.59;;;12.91;100.00
69153;BME280;56261;51.580;4.578;2023-03-13T05:24:28;99849.09;;;12.91;100.00
69153;BME280;56261;51.580;4.578;2023-03-13T05:26:53;99846.78;;;12.95;100.00
69153;BME280;56261;51.580;4.578;2023-03-13T05:29:19;99844.72;;;13.03;100.00
69153;BME280;56261;51.580;4.578;2023-03-13T05:31:44;99836.31;;;13.00;100.00
69153;BME280;56261;51.580;4.578;2023-03-13T05:34:10;99828.28;;;12.93;100.00
69153;BME280;56261;51.580;4.578;2023-03-13T05:36:36;99832.00;;;12.85;100.00
69153;BME280;56261;51.580;4.578;2023-03-13T05:39:01;99826.59;;;12.99;100.00
69153;BME280;56261;51.580;4.578;2023-03-13T05:41:27;99826.63;;;12.92;100.00
69153;BME280;56261;51.580;4.578;2023-03-13T05:43:52;99833.44;;;12.88;100.00
69153;BME280;56261;51.580;4.578;2023-03-13T05:46:17;99831.81;;;12.80;100.00
69153;BME280;56261;51.580;4.578;2023-03-13T05:48:43;99817.00;;;12.84;100.00
69153;BME280;56261;51.580;4.578;2023-03-13T05:51:09;99828.66;;;12.97;100.00
69153;BME280;56261;51.580;4.578;2023-03-13T05:53:35;99816.34;;;12.96;100.00
69153;BME280;56261;51.580;4.578;2023-03-13T05:56:00;99836.94;;;12.95;100.00
69153;BME280;56261;51.580;4.578;2023-03-13T05:58:25;99822.50;;;12.96;100.00
69153;BME280;56261;51.580;4.578;2023-03-13T06:00:51;99830.16;;;12.86;100.00
69153;BME280;56261;51.580;4.578;2023-03-13T06:03:16;99825.56;;;13.06;100.00
69153;BME280;56261;51.580;4.578;2023-03-13T06:05:42;99816.72;;;12.99;100.00
69153;BME280;56261;51.580;4.578;2023-03-13T06:08:07;99824.19;;;12.91;100.00
69153;BME280;56261;51.580;4.578;2023-03-13T06:10:32;99825.78;;;12.98;100.00
69153;BME280;56261;51.580;4.578;2023-03-13T06:12:58;99837.56;;;12.91;100.00
69153;BME280;56261;51.580;4.578;2023-03-13T06:15:23;99830.34;;;12.91;100.00
69153;BME280;56261;51.580;4.578;2023-03-13T06:17:49;99806.47;;;12.90;100.00
69153;BME280;56261;51.580;4.578;2023-03-13T06:20:14;99820.03;;;12.88;100.00
69153;BME280;56261;51.580;4.578;2023-03-13T06:22:40;99822.53;;;12.90;100.00
69153;BME280;56261;51.580;4.578;2023-03-13T06:25:06;99820.91;;;12.88;100.00
69153;BME280;56261;51.580;4.578;2023-03-13T06:27:32;99822.53;;;12.90;100.00
69153;BME280;56261;51.580;4.578;2023-03-13T06:29:57;99825.81;;;12.85;100.00
69153;BME280;56261;51.580;4.578;2023-03-13T06:32:22;99831.38;;;12.90;100.00
69153;BME280;56261;51.580;4.578;2023-03-13T06:34:48;99830.16;;;12.93;100.00
69153;BME280;56261;51.580;4.578;2023-03-13T06:37:13;99827.25;;;12.87;100.00
69153;BME280;56261;51.580;4.578;2023-03-13T06:39:39;99829.13;;;12.87;100.00
69153;BME280;56261;51.580;4.578;2023-03-13T06:42:05;99828.28;;;12.93;100.00
69153;BME280;56261;51.580;4.578;2023-03-13T06:44:30;99816.97;;;12.91;100.00
69153;BME280;56261;51.580;4.578;2023-03-13T06:46:55;99808.34;;;12.76;100.00
69153;BME280;56261;51.580;4.578;2023-03-13T06:49:21;99819.88;;;12.70;100.00
69153;BME280;56261;51.580;4.578;2023-03-13T06:51:46;99815.97;;;12.65;100.00
69153;BME280;56261;51.580;4.578;2023-03-13T06:54:12;99814.97;;;12.60;100.00
69153;BME280;56261;51.580;4.578;2023-03-13T06:56:37;99815.97;;;12.65;100.00
69153;BME280;56261;51.580;4.578;2023-03-13T06:59:03;99814.56;;;12.63;100.00
69153;BME280;56261;51.580;4.578;2023-03-13T07:01:28;99817.22;;;12.70;100.00
69153;BME280;56261;51.580;4.578;2023-03-13T07:03:53;99819.91;;;12.63;100.00
69153;BME280;56261;51.580;4.578;2023-03-13T07:06:19;99820.72;;;12.63;100.00
69153;BME280;56261;51.580;4.578;2023-03-13T07:08:44;99825.06;;;12.64;100.00
69153;BME280;56261;51.580;4.578;2023-03-13T07:11:14;99837.63;;;12.57;100.00
69153;BME280;56261;51.580;4.578;2023-03-13T07:13:39;99817.66;;;12.60;100.00
69153;BME280;56261;51.580;4.578;2023-03-13T07:16:10;99833.28;;;12.56;100.00
69153;BME280;56261;51.580;4.578;2023-03-13T07:18:36;99805.53;;;12.44;100.00
69153;BME280;56261;51.580;4.578;2023-03-13T07:21:03;99827.94;;;12.56;100.00
69153;BME280;56261;51.580;4.578;2023-03-13T07:23:29;99818.47;;;12.54;100.00
69153;BME280;56261;51.580;4.578;2023-03-13T07:26:00;99815.38;;;12.50;100.00
69153;BME280;56261;51.580;4.578;2023-03-13T07:28:27;99814.16;;;12.59;100.00
69153;BME280;56261;51.580;4.578;2023-03-13T07:30:53;99823.22;;;12.52;100.00
69153;BME280;56261;51.580;4.578;2023-03-13T07:33:19;99818.88;;;12.64;100.00
69153;BME280;56261;51.580;4.578;2023-03-13T07:35:51;99816.84;;;12.59;100.00
69153;BME280;56261;51.580;4.578;2023-03-13T07:38:18;99828.34;;;12.60;100.00
69153;BME280;56261;51.580;4.578;2023-03-13T07:40:50;99822.56;;;12.70;100.00
69153;BME280;56261;51.580;4.578;2023-03-13T07:43:16;99813.72;;;12.69;100.00
69153;BME280;56261;51.580;4.578;2023-03-13T07:45:58;99835.94;;;12.63;100.00
69153;BME280;56261;51.580;4.578;2023-03-13T07:48:28;99825.06;;;12.58;100.00
69153;BME280;56261;51.580;4.578;2023-03-13T07:50:54;99838.00;;;12.54;100.00
69153;BME280;56261;51.580;4.578;2023-03-13T07:53:20;99833.72;;;12.46;100.00
69153;BME280;56261;51.580;4.578;2023-03-13T07:58:17;99837.00;;;12.49;100.00
69153;BME280;56261;51.580;4.578;2023-03-13T08:00:42;99841.75;;;12.53;100.00
69153;BME280;56261;51.580;4.578;2023-03-13T08:03:08;99823.81;;;12.60;100.00
69153;BME280;56261;51.580;4.578;2023-03-13T08:05:34;99833.91;;;12.65;100.00
69153;BME280;56261;51.580;4.578;2023-03-13T08:07:59;99829.56;;;12.77;100.00
69153;BME280;56261;51.580;4.578;2023-03-13T11:09:42;99615.59;;;15.89;100.00
69153;BME280;56261;51.580;4.578;2023-03-13T11:12:17;99603.41;;;16.22;100.00
69153;BME280;56261;51.580;4.578;2023-03-13T11:14:44;99618.38;;;16.18;100.00
69153;BME280;56261;51.580;4.578;2023-03-13T11:17:21;99609.72;;;16.28;100.00
69153;BME280;56261;51.580;4.578;2023-03-13T11:20:00;99600.91;;;16.44;100.00
69153;BME280;56261;51.580;4.578;2023-03-13T11:25:35;99592.13;;;15.96;100.00
69153;BME280;56261;51.580;4.578;2023-03-13T11:28:06;99602.69;;;16.27;100.00
69153;BME280;56261;51.580;4.578;2023-03-13T11:30:42;99591.28;;;15.96;100.00
69153;BME280;56261;51.580;4.578;2023-03-13T11:38:18;99584.81;;;16.21;100.00
69153;BME280;56261;51.580;4.578;2023-03-13T11:43:35;99555.44;;;16.59;100.00
69153;BME280;56261;51.580;4.578;2023-03-13T11:48:58;99590.28;;;16.37;100.00
69153;BME280;56261;51.580;4.578;2023-03-13T11:57:26;99554.34;;;16.44;100.00
69153;BME280;56261;51.580;4.578;2023-03-13T12:02:48;99556.81;;;16.33;100.00
69153;BME280;56261;51.580;4.578;2023-03-13T12:05:18;99554.34;;;16.44;100.00
69153;BME280;56261;51.580;4.578;2023-03-13T12:08:05;99553.13;;;16.51;100.00
69153;BME280;56261;51.580;4.578;2023-03-13T12:10:37;99529.78;;;16.40;100.00
69153;BME280;56261;51.580;4.578;2023-03-13T12:13:26;99530.28;;;16.54;100.00
69153;BME280;56261;51.580;4.578;2023-03-13T12:15:59;99514.63;;;16.51;100.00
69153;BME280;56261;51.580;4.578;2023-03-13T12:18:35;99537.69;;;16.47;100.00
69153;BME280;56261;51.580;4.578;2023-03-13T12:26:46;99525.81;;;16.88;100.00
69153;BME280;56261;51.580;4.578;2023-03-13T12:32:33;99530.69;;;16.46;100.00
69153;BME280;56261;51.580;4.578;2023-03-13T12:35:27;99525.63;;;16.49;100.00
69153;BME280;56261;51.580;4.578;2023-03-13T12:43:03;99522.47;;;16.24;100.00
69153;BME280;56261;51.580;4.578;2023-03-13T12:45:29;99496.88;;;16.21;100.00
69153;BME280;56261;51.580;4.578;2023-03-13T12:48:18;99520.53;;;16.65;100.00
69153;BME280;56261;51.580;4.578;2023-03-13T12:59:21;99516.69;;;16.32;100.00
69153;BME280;56261;51.580;4.578;2023-03-13T13:01:48;99521.97;;;16.27;100.00
69153;BME280;56261;51.580;4.578;2023-03-13T13:04:26;99525.69;;;16.37;100.00
69153;BME280;56261;51.580;4.578;2023-03-13T13:11:51;99501.84;;;16.29;100.00
69153;BME280;56261;51.580;4.578;2023-03-13T13:16:45;99520.00;;;16.22;100.00
69153;BME280;56261;51.580;4.578;2023-03-13T13:24:56;99528.44;;;16.26;100.00
69153;BME280;56261;51.580;4.578;2023-03-13T13:30:02;99505.84;;;16.27;100.00
69153;BME280;56261;51.580;4.578;2023-03-13T13:32:34;99517.91;;;16.53;100.00
69153;BME280;56261;51.580;4.578;2023-03-13T13:37:31;99511.44;;;16.37;100.00
69153;BME280;56261;51.580;4.578;2023-03-13T13:53:45;99479.16;;;16.25;100.00
69153;BME280;56261;51.580;4.578;2023-03-13T14:04:46;99462.34;;;16.18;100.00
69153;BME280;56261;51.580;4.578;2023-03-13T14:07:18;99453.81;;;16.21;100.00
69153;BME280;56261;51.580;4.578;2023-03-13T14:09:59;99450.56;;;16.19;100.00
69153;BME280;56261;51.580;4.578;2023-03-13T14:12:33;99442.13;;;16.15;100.00
69153;BME280;56261;51.580;4.578;2023-03-13T14:17:30;99441.66;;;16.18;100.00
69153;BME280;56261;51.580;4.578;2023-03-13T14:19:56;99432.72;;;16.30;100.00
69153;BME280;56261;51.580;4.578;2023-03-13T14:22:21;99444.16;;;16.37;100.00
69153;BME280;56261;51.580;4.578;2023-03-13T14:24:57;99436.56;;;16.05;100.00
69153;BME280;56261;51.580;4.578;2023-03-13T14:27:22;99445.63;;;16.16;100.00
69153;BME280;56261;51.580;4.578;2023-03-13T14:30:04;99447.09;;;16.07;100.00
69153;BME280;56261;51.580;4.578;2023-03-13T14:32:30;99425.78;;;16.17;100.00
69153;BME280;56261;51.580;4.578;2023-03-13T14:34:56;99434.72;;;16.23;100.00
69153;BME280;56261;51.580;4.578;2023-03-13T14:37:36;99416.31;;;16.31;100.00
69153;BME280;56261;51.580;4.578;2023-03-13T14:40:07;99417.09;;;16.44;100.00
69153;BME280;56261;51.580;4.578;2023-03-13T14:42:38;99419.13;;;16.53;100.00
69153;BME280;56261;51.580;4.578;2023-03-13T14:45:13;99416.78;;;16.11;100.00
69153;BME280;56261;51.580;4.578;2023-03-13T14:47:39;99411.88;;;16.08;100.00
69153;BME280;56261;51.580;4.578;2023-03-13T14:50:13;99421.72;;;16.03;100.00
69153;BME280;56261;51.580;4.578;2023-03-13T14:52:49;99429.19;;;15.84;100.00
69153;BME280;56261;51.580;4.578;2023-03-13T14:57:58;99417.78;;;15.93;100.00
69153;BME280;56261;51.580;4.578;2023-03-13T15:05:42;99405.44;;;15.69;100.00
69153;BME280;56261;51.580;4.578;2023-03-13T15:08:16;99399.41;;;15.62;100.00
69153;BME280;56261;51.580;4.578;2023-03-13T15:10:43;99390.97;;;15.70;100.00
69153;BME280;56261;51.580;4.578;2023-03-13T15:13:25;99394.47;;;15.70;100.00
69153;BME280;56261;51.580;4.578;2023-03-13T15:15:52;99384.41;;;15.77;100.00
69153;BME280;56261;51.580;4.578;2023-03-13T15:18:30;99381.50;;;15.79;100.00
69153;BME280;56261;51.580;4.578;2023-03-13T15:23:49;99368.22;;;15.89;100.00
69153;BME280;56261;51.580;4.578;2023-03-13T15:26:15;99373.88;;;15.88;100.00
69153;BME280;56261;51.580;4.578;2023-03-13T15:28:41;99363.97;;;15.65;100.00
69153;BME280;56261;51.580;4.578;2023-03-13T15:31:09;99369.81;;;15.73;100.00
69153;BME280;56261;51.580;4.578;2023-03-13T15:33:36;99351.38;;;15.65;100.00
69153;BME280;56261;51.580;4.578;2023-03-13T15:36:01;99352.22;;;15.54;100.00
69153;BME280;56261;51.580;4.578;2023-03-13T15:38:26;99357.75;;;15.47;100.00
69153;BME280;56261;51.580;4.578;2023-03-13T15:40:52;99334.56;;;15.29;100.00
69153;BME280;56261;51.580;4.578;2023-03-13T15:43:19;99334.50;;;15.41;100.00
69153;BME280;56261;51.580;4.578;2023-03-13T15:45:45;99329.13;;;15.41;100.00
69153;BME280;56261;51.580;4.578;2023-03-13T15:48:17;99340.34;;;15.38;100.00
69153;BME280;56261;51.580;4.578;2023-03-13T15:50:50;99326.50;;;15.18;100.00
69153;BME280;56261;51.580;4.578;2023-03-13T15:53:20;99319.88;;;15.08;100.00
69153;BME280;56261;51.580;4.578;2023-03-13T15:55:47;99307.38;;;15.14;100.00
69153;BME280;56261;51.580;4.578;2023-03-13T15:58:13;99305.16;;;15.11;100.00
69153;BME280;56261;51.580;4.578;2023-03-13T16:00:39;99307.59;;;15.12;100.00
69153;BME280;56261;51.580;4.578;2023-03-13T16:03:05;99289.53;;;15.08;100.00
69153;BME280;56261;51.580;4.578;2023-03-13T16:05:30;99301.16;;;15.13;100.00
69153;BME280;56261;51.580;4.578;2023-03-13T16:07:56;99292.41;;;15.18;100.00
69153;BME280;56261;51.580;4.578;2023-03-13T16:10:27;99296.06;;;15.00;100.00
69153;BME280;56261;51.580;4.578;2023-03-13T16:12:54;99279.28;;;15.05;100.00
69153;BME280;56261;51.580;4.578;2023-03-13T16:15:20;99271.22;;;15.05;100.00
69153;BME280;56261;51.580;4.578;2023-03-13T16:17:45;99270.38;;;15.04;100.00
69153;BME280;56261;51.580;4.578;2023-03-13T16:20:18;99271.75;;;15.07;100.00
69153;BME280;56261;51.580;4.578;2023-03-13T16:22:45;99256.84;;;14.99;100.00
69153;BME280;56261;51.580;4.578;2023-03-13T16:25:10;99250.31;;;14.95;100.00
69153;BME280;56261;51.580;4.578;2023-03-13T16:27:36;99244.25;;;15.00;100.00
69153;BME280;56261;51.580;4.578;2023-03-13T16:30:02;99239.34;;;14.97;100.00
69153;BME280;56261;51.580;4.578;2023-03-13T16:32:28;99234.72;;;14.92;100.00
69153;BME280;56261;51.580;4.578;2023-03-13T16:34:54;99230.50;;;14.84;100.00
69153;BME280;56261;51.580;4.578;2023-03-13T16:37:19;99238.91;;;14.88;100.00
69153;BME280;56261;51.580;4.578;2023-03-13T16:39:46;99232.59;;;14.82;100.00
69153;BME280;56261;51.580;4.578;2023-03-13T16:42:12;99236.94;;;14.83;100.00
69153;BME280;56261;51.580;4.578;2023-03-13T16:44:38;99230.88;;;14.88;100.00
69153;BME280;56261;51.580;4.578;2023-03-13T16:47:22;99232.59;;;14.82;100.00
69153;BME280;56261;51.580;4.578;2023-03-13T16:49:49;99233.59;;;14.76;100.00
69153;BME280;56261;51.580;4.578;2023-03-13T16:52:16;99234.28;;;14.71;100.00
69153;BME280;56261;51.580;4.578;2023-03-13T16:54:42;99240.59;;;14.65;100.00
69153;BME280;56261;51.580;4.578;2023-03-13T16:57:12;99243.50;;;14.64;100.00
69153;BME280;56261;51.580;4.578;2023-03-13T16:59:38;99243.88;;;14.67;100.00
69153;BME280;56261;51.580;4.578;2023-03-13T17:02:03;99248.88;;;14.64;100.00
69153;BME280;56261;51.580;4.578;2023-03-13T17:04:29;99260.53;;;14.69;100.00
69153;BME280;56261;51.580;4.578;2023-03-13T17:06:54;99250.53;;;14.65;100.00
69153;BME280;56261;51.580;4.578;2023-03-13T17:09:19;99240.81;;;14.52;100.00
69153;BME280;56261;51.580;4.578;2023-03-13T17:11:45;99230.91;;;14.52;100.00
69153;BME280;56261;51.580;4.578;2023-03-13T17:14:10;99235.09;;;14.48;100.00
69153;BME280;56261;51.580;4.578;2023-03-13T17:16:41;99233.59;;;14.41;100.00
69153;BME280;56261;51.580;4.578;2023-03-13T17:19:14;99239.19;;;14.39;100.00
69153;BME280;56261;51.580;4.578;2023-03-13T17:21:41;99231.97;;;14.28;100.00
69153;BME280;56261;51.580;4.578;2023-03-13T17:24:07;99220.66;;;14.14;100.00
69153;BME280;56261;51.580;4.578;2023-03-13T17:26:35;99229.50;;;14.15;100.00
69153;BME280;56261;51.580;4.578;2023-03-13T17:29:02;99240.13;;;14.09;100.00
69153;BME280;56261;51.580;4.578;2023-03-13T17:31:28;99224.16;;;13.91;100.00
69153;BME280;56261;51.580;4.578;2023-03-13T17:33:55;99233.81;;;13.80;100.00
69153;BME280;56261;51.580;4.578;2023-03-13T17:36:25;99228.66;;;13.67;100.00
69153;BME280;56261;51.580;4.578;2023-03-13T17:38:54;99234.81;;;13.67;100.00
69153;BME280;56261;51.580;4.578;2023-03-13T17:41:22;99230.63;;;13.60;100.00
69153;BME280;56261;51.580;4.578;2023-03-13T17:43:49;99244.44;;;13.57;100.00